Time;durP1;ratioP1;P1;durP2;ratioP2;P2;SDS_P1;SDS_P2;PMS_P1;PMS_P2;Temp;Humidity;BMP_temperature;BMP_pressure;BME280_temperature;BME280_humidity;BME280_pressure;Samples;Min_cycle;Max_cycle;Signal;HPM_P1;HPM_P2
2022/12/22 03:26:59;;;;;;;1.20;1.10;;;11.50;99.90;;;;;;5012246;28;20206;-77
2022/12/22 03:29:25;;;;;;;1.13;1.03;;;11.80;99.90;;;;;;5012387;28;20646;-77
2022/12/22 03:31:50;;;;;;;3.47;1.30;;;11.70;99.90;;;;;;5014450;28;20243;-77
2022/12/22 03:34:16;;;;;;;1.20;1.10;;;11.30;99.90;;;;;;5002969;28;20252;-79
2022/12/22 03:36:41;;;;;;;1.47;1.20;;;11.30;99.90;;;;;;5012559;28;20299;-78
2022/12/22 03:39:08;;;;;;;1.97;1.20;;;11.20;99.90;;;;;;5003308;28;20217;-78
2022/12/22 03:47:02;;;;;;;1.10;1.00;;;11.20;99.90;;;;;;5010609;28;20280;-78
2022/12/22 03:49:28;;;;;;;1.40;1.30;;;11.10;99.90;;;;;;5006653;28;20969;-78
2022/12/22 03:51:53;;;;;;;1.90;1.13;;;11.10;99.90;;;;;;5012219;28;20218;-78
2022/12/22 03:54:21;;;;;;;1.53;1.43;;;11.30;99.90;;;;;;5004390;28;20211;-78
2022/12/22 03:56:48;;;;;;;1.23;0.90;;;11.60;99.90;;;;;;5011781;28;20212;-78
2022/12/22 03:59:13;;;;;;;0.80;0.80;;;11.20;99.90;;;;;;5011405;28;20221;-78
2022/12/22 04:01:42;;;;;;;1.57;1.13;;;11.70;99.90;;;;;;5009466;28;20287;-79
2022/12/22 04:04:08;;;;;;;1.13;1.02;;;11.60;99.90;;;;;;5005334;28;20193;-78
2022/12/22 04:06:34;;;;;;;5.00;1.13;;;10.80;99.90;;;;;;5011755;28;20651;-78
2022/12/22 04:09:00;;;;;;;1.40;1.20;;;11.80;99.90;;;;;;5006768;28;20189;-78
2022/12/22 04:14:10;;;;;;;2.38;1.17;;;11.90;99.90;;;;;;5011113;28;20201;-78
2022/12/22 04:16:35;;;;;;;1.13;0.93;;;11.50;99.90;;;;;;5011438;28;20205;-78
2022/12/22 04:19:01;;;;;;;1.10;0.70;;;11.70;99.90;;;;;;5001962;28;20232;-78
2022/12/22 04:21:26;;;;;;;0.90;0.90;;;11.60;99.90;;;;;;5011138;28;20202;-78
2022/12/22 04:23:52;;;;;;;1.10;1.00;;;11.70;99.90;;;;;;5005249;28;20186;-79
2022/12/22 04:26:20;;;;;;;1.30;0.97;;;11.40;99.90;;;;;;5017048;28;20467;-78
2022/12/22 04:28:46;;;;;;;2.20;1.10;;;11.80;99.90;;;;;;5016401;28;20195;-79
2022/12/22 04:31:11;;;;;;;1.10;1.00;;;11.60;99.90;;;;;;5014542;28;20205;-78
2022/12/22 04:33:37;;;;;;;1.70;1.03;;;11.80;99.90;;;;;;5007402;28;20214;-79
2022/12/22 04:36:03;;;;;;;1.37;0.90;;;11.70;99.90;;;;;;5010515;28;20636;-78
2022/12/22 04:38:29;;;;;;;0.80;0.70;;;11.80;99.90;;;;;;5005903;28;20985;-79
2022/12/22 04:40:54;;;;;;;1.60;0.97;;;11.80;99.90;;;;;;5007504;28;20454;-78
2022/12/22 04:43:20;;;;;;;0.93;0.70;;;11.70;99.90;;;;;;5012227;28;20239;-79
2022/12/22 04:45:45;;;;;;;1.20;1.10;;;12.00;99.90;;;;;;5010621;28;20615;-78
2022/12/22 04:48:11;;;;;;;2.47;1.00;;;11.70;99.90;;;;;;4999394;28;20607;-78
2022/12/22 04:50:37;;;;;;;1.20;1.10;;;;;;;;;;5010778;28;20642;-78
2022/12/22 04:53:02;;;;;;;1.23;1.00;;;11.80;99.90;;;;;;5008322;28;20252;-78
2022/12/22 04:55:28;;;;;;;2.50;0.90;;;11.80;99.90;;;;;;5010808;28;21162;-79
2022/12/22 04:57:53;;;;;;;1.57;0.97;;;11.50;99.90;;;;;;5009269;28;20305;-77
2022/12/22 05:00:19;;;;;;;1.00;0.90;;;11.50;99.90;;;;;;5009508;28;20235;-78
2022/12/22 05:02:44;;;;;;;2.30;1.40;;;11.60;99.90;;;;;;4998753;28;20799;-78
2022/12/22 05:05:10;;;;;;;1.77;0.90;;;11.50;99.90;;;;;;5014457;28;20186;-79
2022/12/22 05:07:35;;;;;;;1.33;1.00;;;11.80;99.90;;;;;;5010092;28;20181;-78
2022/12/22 05:10:03;;;;;;;2.00;0.93;;;11.70;99.90;;;;;;5008783;28;20193;-77
2022/12/22 05:15:13;;;;;;;2.20;1.15;;;12.00;99.90;;;;;;5010341;28;20857;-78
2022/12/22 05:17:39;;;;;;;2.77;1.20;;;12.00;99.90;;;;;;5009066;28;20293;-77
2022/12/22 05:20:05;;;;;;;3.37;1.57;;;11.30;99.90;;;;;;5010627;28;20175;-77
2022/12/22 05:22:30;;;;;;;1.27;0.90;;;11.60;99.90;;;;;;5010425;28;20213;-78
2022/12/22 05:24:56;;;;;;;1.03;0.70;;;11.70;99.90;;;;;;5006145;28;20549;-78
2022/12/22 05:27:21;;;;;;;7.13;1.50;;;11.80;99.90;;;;;;5010405;28;20197;-78
2022/12/22 05:29:47;;;;;;;1.30;1.13;;;11.80;99.90;;;;;;5006846;28;20770;-77
2022/12/22 05:32:12;;;;;;;3.07;1.20;;;11.60;99.90;;;;;;5009723;28;20290;-77
2022/12/22 05:34:38;;;;;;;3.20;1.00;;;11.80;99.90;;;;;;5008303;28;20202;-77
2022/12/22 05:37:03;;;;;;;1.00;0.90;;;11.90;99.90;;;;;;5009720;28;20189;-77
2022/12/22 05:39:29;;;;;;;2.93;1.10;;;12.30;99.90;;;;;;4998664;28;20695;-78
2022/12/22 05:41:54;;;;;;;2.67;1.17;;;11.40;99.90;;;;;;5010130;28;20217;-78
2022/12/22 05:44:20;;;;;;;1.77;1.03;;;11.80;99.90;;;;;;5011014;28;20190;-78
2022/12/22 05:46:48;;;;;;;1.60;1.20;;;12.00;99.90;;;;;;5011498;28;20237;-77
2022/12/22 05:49:13;;;;;;;1.55;0.90;;;11.80;99.90;;;;;;5009306;28;20189;-77
2022/12/22 05:51:39;;;;;;;1.77;1.00;;;11.70;99.90;;;;;;5010458;28;20642;-78
2022/12/22 05:54:04;;;;;;;2.03;1.13;;;11.90;99.90;;;;;;5009291;28;20200;-77
2022/12/22 05:56:30;;;;;;;3.83;1.40;;;12.10;99.90;;;;;;5009878;28;20250;-77
2022/12/22 05:58:55;;;;;;;3.17;1.37;;;12.10;99.90;;;;;;5006303;28;20658;-78
2022/12/22 06:01:21;;;;;;;1.67;0.90;;;12.20;99.90;;;;;;5008885;28;20253;-78
2022/12/22 06:03:46;;;;;;;3.07;1.10;;;12.00;99.90;;;;;;5006072;28;20182;-78
2022/12/22 06:06:12;;;;;;;3.17;1.17;;;12.20;99.90;;;;;;5009370;28;20188;-78
2022/12/22 06:08:37;;;;;;;1.30;1.20;;;11.80;99.90;;;;;;5004545;28;20234;-78
2022/12/22 06:11:03;;;;;;;1.30;1.03;;;11.70;99.90;;;;;;5004243;28;20210;-77
2022/12/22 06:13:29;;;;;;;1.57;1.47;;;11.80;99.90;;;;;;5004319;28;20190;-78
2022/12/22 06:15:54;;;;;;;1.63;0.83;;;11.70;99.90;;;;;;5008341;28;20199;-78
2022/12/22 06:18:20;;;;;;;3.23;1.30;;;11.80;99.90;;;;;;5007405;28;20234;-79
2022/12/22 06:20:46;;;;;;;7.03;2.27;;;11.30;99.90;;;;;;5005370;28;20305;-79
2022/12/22 06:23:11;;;;;;;3.47;2.17;;;11.40;99.90;;;;;;5007142;28;20209;-78
2022/12/22 06:25:37;;;;;;;4.50;2.60;;;11.40;99.90;;;;;;5011074;28;20954;-78
2022/12/22 06:28:02;;;;;;;2.30;2.00;;;11.50;99.90;;;;;;5010109;28;20633;-78
2022/12/22 06:30:28;;;;;;;2.70;1.70;;;11.40;99.90;;;;;;5014331;28;20185;-78
2022/12/22 06:32:53;;;;;;;4.30;1.70;;;11.40;99.90;;;;;;5006602;28;20204;-78
2022/12/22 06:35:19;;;;;;;2.63;1.33;;;11.80;99.90;;;;;;5016861;28;20201;-78
2022/12/22 06:37:44;;;;;;;2.40;1.30;;;11.20;99.90;;;;;;5012749;28;20213;-78
2022/12/22 06:40:10;;;;;;;4.07;1.30;;;11.20;99.90;;;;;;4999381;28;20224;-79
2022/12/22 06:45:20;;;;;;;3.45;1.58;;;11.50;99.90;;;;;;5007622;28;20442;-78
2022/12/22 06:47:45;;;;;;;4.67;1.73;;;11.20;99.90;;;;;;5010215;28;20189;-78
2022/12/22 06:50:11;;;;;;;2.23;1.23;;;11.80;99.90;;;;;;5013969;28;20223;-78
2022/12/22 06:52:36;;;;;;;4.10;1.73;;;11.70;99.90;;;;;;5012300;28;20289;-78
2022/12/22 06:55:02;;;;;;;5.87;2.00;;;11.90;99.90;;;;;;5000420;28;20277;-78
2022/12/22 06:57:28;;;;;;;3.70;1.33;;;11.90;99.90;;;;;;5012678;28;20663;-78
2022/12/22 06:59:54;;;;;;;5.20;1.70;;;11.90;99.90;;;;;;5015180;28;20441;-78
2022/12/22 07:02:19;;;;;;;3.67;1.90;;;12.10;99.90;;;;;;5013254;28;20221;-78
2022/12/22 07:04:45;;;;;;;5.20;1.57;;;12.00;99.90;;;;;;5004958;28;20183;-78
2022/12/22 07:07:10;;;;;;;2.80;1.20;;;12.40;99.90;;;;;;5012722;28;20186;-78
2022/12/22 07:09:36;;;;;;;4.30;1.77;;;11.80;99.90;;;;;;5001388;28;20187;-77
2022/12/22 07:12:02;;;;;;;4.57;1.50;;;11.90;99.90;;;;;;5012127;28;20201;-78
2022/12/22 07:14:27;;;;;;;4.37;1.70;;;12.00;99.90;;;;;;5003208;28;20201;-78
2022/12/22 07:16:53;;;;;;;6.20;1.90;;;12.50;99.90;;;;;;5012980;28;20439;-78
2022/12/22 07:19:18;;;;;;;3.33;1.90;;;12.10;99.90;;;;;;5012559;28;20212;-78
2022/12/22 07:21:46;;;;;;;3.50;1.43;;;12.50;99.90;;;;;;5012033;28;20238;-77
2022/12/22 07:24:12;;;;;;;2.40;1.30;;;12.00;99.90;;;;;;5005141;28;20272;-77
2022/12/22 07:26:37;;;;;;;2.90;1.30;;;12.10;99.90;;;;;;5011894;28;20268;-78
2022/12/22 07:29:03;;;;;;;3.80;1.37;;;12.00;99.90;;;;;;5017276;28;20273;-78
2022/12/22 07:31:29;;;;;;;4.40;1.30;;;12.50;99.90;;;;;;5011381;28;20615;-78
2022/12/22 07:33:54;;;;;;;10.40;2.37;;;11.90;99.90;;;;;;5009928;28;20190;-77
2022/12/22 07:36:20;;;;;;;4.40;1.60;;;12.50;99.90;;;;;;5011409;28;20185;-78
2022/12/22 07:38:48;;;;;;;3.43;2.03;;;12.30;99.90;;;;;;5006318;28;20254;-78
2022/12/22 07:44:00;;;;;;;4.97;1.42;;;12.60;99.90;;;;;;5001276;28;20224;-78
2022/12/22 07:46:27;;;;;;;4.53;2.03;;;12.10;99.90;;;;;;5006622;28;20233;-78
2022/12/22 07:51:42;;;;;;;2.83;1.42;;;12.30;99.90;;;;;;5011815;28;20265;-77
2022/12/22 07:54:11;;;;;;;4.38;1.73;;;12.10;99.90;;;;;;5010615;28;20199;-78
2022/12/22 07:56:36;;;;;;;3.30;1.48;;;12.40;99.90;;;;;;5011136;28;20221;-78
2022/12/22 07:59:02;;;;;;;3.70;1.70;;;12.10;99.90;;;;;;5011601;28;20245;-77
2022/12/22 08:01:28;;;;;;;2.13;1.10;;;12.20;99.90;;;;;;5006979;28;20217;-77
2022/12/22 08:03:53;;;;;;;6.57;2.27;;;12.00;99.90;;;;;;5005288;28;20442;-78
2022/12/22 08:06:19;;;;;;;2.37;1.03;;;11.80;99.90;;;;;;5011408;28;20277;-78
2022/12/22 08:08:45;;;;;;;4.03;1.30;;;11.60;99.90;;;;;;5004734;28;20728;-78
2022/12/22 08:11:10;;;;;;;4.20;1.80;;;11.80;99.90;;;;;;5009217;28;20209;-78
2022/12/22 08:13:37;;;;;;;3.73;1.30;;;11.40;99.90;;;;;;5010669;28;20197;-77
2022/12/22 08:16:07;;;;;;;4.07;1.58;;;11.80;99.90;;;;;;5006419;28;20262;-78
2022/12/22 08:18:34;;;;;;;2.63;1.10;;;11.50;99.90;;;;;;5001311;28;20230;-78
2022/12/22 08:21:00;;;;;;;5.88;2.10;;;12.70;99.90;;;;;;5010863;28;20865;-78
2022/12/22 08:23:26;;;;;;;7.32;1.65;;;11.30;99.90;;;;;;5008804;28;21214;-78
2022/12/22 08:26:00;;;;;;;4.50;1.57;;;11.20;99.90;;;;;;5010461;28;20182;-78
2022/12/22 08:28:26;;;;;;;4.95;1.98;;;11.40;99.90;;;;;;5010322;28;20192;-78
2022/12/22 08:30:52;;;;;;;2.40;1.40;;;11.70;99.90;;;;;;5010608;28;20189;-77
2022/12/22 08:33:18;;;;;;;3.70;1.80;;;12.00;99.90;;;;;;5008035;28;20514;-78
2022/12/22 08:35:43;;;;;;;5.47;1.80;;;11.60;99.90;;;;;;5011534;28;20507;-78
2022/12/22 08:38:11;;;;;;;3.70;2.13;;;11.60;99.90;;;;;;5006392;28;20236;-78
2022/12/22 08:40:37;;;;;;;4.28;1.67;;;11.60;99.90;;;;;;5007623;28;20269;-78
2022/12/22 08:43:06;;;;;;;5.40;1.63;;;11.80;99.90;;;;;;5008124;28;20309;-78
2022/12/22 08:45:32;;;;;;;3.72;1.60;;;11.90;99.90;;;;;;4999045;28;20286;-78
2022/12/22 08:47:58;;;;;;;7.85;1.90;;;12.00;99.90;;;;;;5006036;28;20209;-81
2022/12/22 08:50:23;;;;;;;4.43;2.47;;;11.90;99.90;;;;;;4999097;28;20788;-78
2022/12/22 08:52:49;;;;;;;3.40;2.10;;;12.40;99.90;;;;;;5009267;28;20209;-78
2022/12/22 08:55:14;;;;;;;4.63;1.70;;;12.40;99.90;;;;;;5001484;28;20659;-78
2022/12/22 08:57:40;;;;;;;5.33;1.83;;;12.10;99.90;;;;;;5014152;28;20253;-78
2022/12/22 09:00:07;;;;;;;4.30;2.17;;;12.90;99.90;;;;;;5010820;28;20210;-78
2022/12/22 09:02:34;;;;;;;5.55;1.85;;;12.60;99.90;;;;;;5005234;28;20573;-78
2022/12/22 09:04:59;;;;;;;5.35;1.52;;;12.70;99.90;;;;;;5009938;28;20171;-78
2022/12/22 09:07:25;;;;;;;3.90;1.50;;;13.00;99.90;;;;;;5023074;28;20865;-78
2022/12/22 09:09:50;;;;;;;5.10;1.20;;;12.80;99.90;;;;;;5003328;28;20214;-78
2022/12/22 09:12:16;;;;;;;4.10;1.77;;;12.90;99.90;;;;;;5009945;28;20207;-78
2022/12/22 09:14:42;;;;;;;4.63;1.67;;;12.90;99.90;;;;;;5011017;28;20191;-78
2022/12/22 09:17:07;;;;;;;5.93;1.90;;;13.00;99.90;;;;;;5014685;28;20187;-78
2022/12/22 09:19:33;;;;;;;5.03;2.17;;;13.50;99.90;;;;;;5002489;28;20228;-78
2022/12/22 09:21:59;;;;;;;4.30;1.60;;;13.30;99.90;;;;;;5009648;28;20206;-79
2022/12/22 09:24:24;;;;;;;2.70;1.53;;;13.00;99.90;;;;;;5004633;28;20441;-77
2022/12/22 09:26:50;;;;;;;6.33;1.87;;;12.90;99.90;;;;;;5010443;28;20179;-77
2022/12/22 09:29:15;;;;;;;4.63;1.67;;;12.90;99.90;;;;;;5011113;28;20186;-78
2022/12/22 09:31:41;;;;;;;4.57;1.90;;;12.50;99.90;;;;;;5010881;28;20202;-78
2022/12/22 09:34:07;;;;;;;4.43;1.83;;;12.10;99.90;;;;;;5002952;28;20517;-77
2022/12/22 09:36:33;;;;;;;4.68;1.85;;;12.50;99.90;;;;;;5009460;28;20633;-77
2022/12/22 09:39:05;;;;;;;8.20;2.57;;;12.20;99.90;;;;;;5001354;28;20233;-79
2022/12/22 09:41:50;;;;;;;4.30;1.50;;;12.40;99.90;;;;;;5010144;28;20216;-78
2022/12/22 09:44:23;;;;;;;3.08;1.85;;;12.10;99.90;;;;;;5009827;28;20704;-78
2022/12/22 09:46:49;;;;;;;3.92;1.20;;;12.10;99.90;;;;;;5009525;28;20205;-78
2022/12/22 09:49:17;;;;;;;4.68;1.33;;;12.10;99.90;;;;;;5006659;28;20704;-78
2022/12/22 09:51:47;;;;;;;3.75;1.45;;;11.90;99.90;;;;;;5009451;28;20222;-78
2022/12/22 09:54:14;;;;;;;7.20;2.28;;;12.20;99.90;;;;;;5003563;28;20620;-78
2022/12/22 09:56:40;;;;;;;5.72;2.50;;;11.70;99.90;;;;;;5008955;28;20298;-78
2022/12/22 09:59:11;;;;;;;5.80;1.97;;;11.80;99.90;;;;;;5009420;28;20687;-78
2022/12/22 10:01:55;;;;;;;4.53;1.48;;;11.80;99.90;;;;;;5006699;28;20227;-78
2022/12/22 10:04:54;;;;;;;3.65;1.52;;;11.40;99.90;;;;;;5006005;28;20179;-78
2022/12/22 10:07:26;;;;;;;3.35;1.60;;;11.70;99.90;;;;;;5010194;28;20687;-78
2022/12/22 10:09:51;;;;;;;4.05;1.67;;;11.80;99.90;;;;;;5002652;28;20185;-78
2022/12/22 10:12:23;;;;;;;6.23;1.37;;;12.50;99.90;;;;;;5013314;28;20210;-78
2022/12/22 10:14:51;;;;;;;4.50;1.40;;;12.20;99.90;;;;;;5008180;28;20743;-78
2022/12/22 10:17:20;;;;;;;2.97;1.10;;;12.60;99.90;;;;;;5012764;28;20180;-77
2022/12/22 10:19:48;;;;;;;3.75;1.65;;;12.70;99.90;;;;;;5012956;28;20175;-78
2022/12/22 10:22:35;;;;;;;3.45;1.40;;;12.30;99.90;;;;;;5012338;28;20207;-79
2022/12/22 10:25:04;;;;;;;3.92;1.52;;;12.60;99.90;;;;;;5013161;28;20186;-78
2022/12/22 10:27:33;;;;;;;1.98;1.05;;;12.20;99.90;;;;;;5013113;28;20641;-78
2022/12/22 10:30:22;;;;;;;2.97;1.90;;;12.50;99.90;;;;;;5012611;28;20191;-78
2022/12/22 10:33:14;;;;;;;3.85;1.70;;;12.10;99.90;;;;;;5002385;28;20203;-78
2022/12/22 10:35:51;;;;;;;2.47;1.30;;;12.60;99.90;;;;;;5004309;28;20175;-78
2022/12/22 10:38:29;;;;;;;3.83;1.55;;;12.40;99.90;;;;;;5010451;28;20242;-78
2022/12/22 10:40:57;;;;;;;2.63;1.00;;;13.00;99.90;;;;;;5020951;28;20193;-78
2022/12/22 10:43:27;;;;;;;5.63;2.00;;;12.70;99.90;;;;;;5012631;28;20194;-78
2022/12/22 10:45:55;;;;;;;2.70;2.15;;;13.00;99.90;;;;;;5012710;28;20179;-78
2022/12/22 10:48:29;;;;;;;4.00;1.23;;;12.60;99.90;;;;;;5005894;28;20701;-77
2022/12/22 10:50:56;;;;;;;3.80;1.63;;;13.00;99.90;;;;;;5011896;28;20182;-78
2022/12/22 10:53:40;;;;;;;3.17;1.60;;;12.70;99.90;;;;;;5009157;28;20253;-78
2022/12/22 10:56:06;;;;;;;2.13;1.38;;;12.60;99.90;;;;;;5011698;28;20182;-78
2022/12/22 10:58:54;;;;;;;2.80;1.50;;;12.50;99.90;;;;;;5013168;28;20750;-78
2022/12/22 11:01:25;;;;;;;2.03;1.15;;;12.90;99.90;;;;;;5009256;28;20288;-78
2022/12/22 11:03:50;;;;;;;1.65;1.15;;;12.70;99.90;;;;;;5008024;28;20229;-78
2022/12/22 11:06:16;;;;;;;2.20;1.30;;;12.60;99.90;;;;;;5011746;28;20619;-78
2022/12/22 11:08:42;;;;;;;5.63;1.50;;;12.80;99.90;;;;;;5009571;28;20195;-79
2022/12/22 11:11:37;;;;;;;3.63;1.23;;;12.60;99.90;;;;;;5010000;28;20264;-79
2022/12/22 11:14:08;;;;;;;1.83;1.10;;;12.60;99.90;;;;;;5007403;28;20321;-79
2022/12/22 11:17:04;;;;;;;3.47;1.70;;;13.10;99.90;;;;;;5011585;28;20223;-78
2022/12/22 11:19:54;;;;;;;2.72;1.63;;;12.40;99.90;;;;;;4997463;28;20608;-78
2022/12/22 11:22:40;;;;;;;1.60;1.00;;;13.20;99.90;;;;;;5008554;28;20203;-78
2022/12/22 11:25:27;;;;;;;3.75;1.80;;;13.40;99.90;;;;;;5009488;28;20194;-79
2022/12/22 11:28:11;;;;;;;4.88;1.60;;;13.60;99.90;;;;;;5012217;28;20718;-78
2022/12/22 11:31:16;;;;;;;4.70;1.65;;;13.70;99.90;;;;;;5009971;28;20191;-79
2022/12/22 11:34:01;;;;;;;2.50;1.20;;;13.80;99.90;;;;;;5007630;28;20191;-78
2022/12/22 11:37:02;;;;;;;3.92;1.25;;;13.60;99.90;;;;;;5010110;28;20179;-78
2022/12/22 11:39:41;;;;;;;2.75;1.83;;;13.80;99.90;;;;;;4999599;28;20228;-77
2022/12/22 11:42:36;;;;;;;2.28;1.05;;;13.80;99.90;;;;;;5011289;28;20206;-79
2022/12/22 11:45:39;;;;;;;1.30;1.00;;;13.60;99.90;;;;;;5009955;28;20198;-78
2022/12/22 11:48:39;;;;;;;3.08;1.48;;;13.80;99.90;;;;;;5009045;28;20531;-78
2022/12/22 11:51:31;;;;;;;4.60;1.70;;;13.60;99.90;;;;;;5008981;28;20206;-78
2022/12/22 11:54:33;;;;;;;1.25;0.90;;;13.70;99.90;;;;;;5004309;28;20199;-78
2022/12/22 11:57:09;;;;;;;1.70;0.90;;;13.90;99.90;;;;;;5009934;28;20190;-78
2022/12/22 11:59:48;;;;;;;1.50;1.02;;;13.50;99.90;;;;;;5010827;28;20277;-77
2022/12/22 12:02:14;;;;;;;0.90;0.80;;;13.30;99.90;;;;;;4996450;28;20221;-78
2022/12/22 12:04:58;;;;;;;1.00;0.90;;;13.80;99.90;;;;;;5010882;28;20183;-78
2022/12/22 12:07:37;;;;;;;1.00;0.90;;;14.50;99.90;;;;;;5010745;28;20626;-78
2022/12/22 12:10:26;;;;;;;2.85;1.10;;;14.70;99.90;;;;;;5006596;28;20182;-79
2022/12/22 12:13:07;;;;;;;2.25;1.00;;;14.50;99.90;;;;;;5009484;28;20205;-78
2022/12/22 12:15:48;;;;;;;4.13;0.95;;;14.40;99.90;;;;;;5008351;28;20656;-78
2022/12/22 12:18:20;;;;;;;1.42;1.00;;;14.50;99.90;;;;;;5010854;28;20702;-78
2022/12/22 12:21:00;;;;;;;4.70;1.58;;;14.40;99.90;;;;;;5011557;28;20270;-78
2022/12/22 12:23:29;;;;;;;3.40;1.10;;;14.40;99.90;;;;;;5007955;28;20183;-78
2022/12/22 12:26:18;;;;;;;2.05;1.58;;;14.50;99.90;;;;;;5008322;28;20181;-78
2022/12/22 12:29:00;;;;;;;1.90;1.10;;;14.60;99.90;;;;;;5007306;28;20703;-77
2022/12/22 12:31:33;;;;;;;2.33;1.10;;;14.60;99.90;;;;;;5009917;28;20214;-78
2022/12/22 12:34:01;;;;;;;1.70;1.02;;;14.70;99.90;;;;;;5009238;28;20197;-78
2022/12/22 12:36:38;;;;;;;1.55;1.00;;;14.70;99.90;;;;;;5009622;28;20644;-77
2022/12/22 12:39:58;;;;;;;3.20;1.00;;;14.10;99.90;;;;;;5012453;28;20212;-78
2022/12/22 12:42:49;;;;;;;2.88;1.10;;;13.90;99.90;;;;;;4988082;28;20589;-78
2022/12/22 12:45:36;;;;;;;1.48;0.90;;;14.20;99.90;;;;;;5005402;28;20195;-78
2022/12/22 12:48:19;;;;;;;1.65;1.55;;;14.20;99.90;;;;;;5011380;28;20202;-78
2022/12/22 12:50:56;;;;;;;1.45;0.80;;;13.50;99.90;;;;;;5006444;28;20190;-78
2022/12/22 12:53:23;;;;;;;1.65;0.80;;;13.70;99.90;;;;;;5007700;28;20278;-79
2022/12/22 12:55:48;;;;;;;1.90;1.00;;;13.90;99.90;;;;;;5014149;28;20189;-79
2022/12/22 12:58:34;;;;;;;1.63;0.87;;;13.70;99.90;;;;;;5010459;28;20214;-78
2022/12/22 13:01:31;;;;;;;1.60;0.90;;;13.70;99.90;;;;;;5007577;28;20199;-78
2022/12/22 13:03:56;;;;;;;2.65;0.95;;;13.90;99.90;;;;;;5005731;28;20754;-78
2022/12/22 13:06:43;;;;;;;4.50;1.20;;;13.90;99.90;;;;;;5009872;28;20182;-78
2022/12/22 13:09:09;;;;;;;1.73;0.95;;;13.60;99.90;;;;;;5008657;28;20190;-78
2022/12/22 13:11:36;;;;;;;2.55;1.08;;;13.70;99.90;;;;;;5008702;28;20301;-78
2022/12/22 13:14:02;;;;;;;1.17;0.60;;;13.60;99.90;;;;;;5010521;28;20186;-78
2022/12/22 13:16:31;;;;;;;2.15;0.85;;;13.70;99.90;;;;;;5003807;28;20667;-78
2022/12/22 13:19:01;;;;;;;0.80;0.70;;;13.30;99.90;;;;;;5008564;28;20697;-78
2022/12/22 13:21:29;;;;;;;2.45;1.20;;;13.30;99.90;;;;;;5010564;28;20195;-78
2022/12/22 13:23:55;;;;;;;2.30;1.20;;;13.60;99.90;;;;;;5007685;28;20183;-78
2022/12/22 13:26:31;;;;;;;2.40;0.80;;;13.20;99.90;;;;;;5007961;28;20185;-78
2022/12/22 13:29:13;;;;;;;1.20;0.73;;;13.20;99.90;;;;;;5022827;28;20213;-77
2022/12/22 13:31:50;;;;;;;0.90;0.75;;;13.30;99.90;;;;;;5008330;28;20313;-78
2022/12/22 13:34:38;;;;;;;1.15;0.88;;;13.40;99.90;;;;;;5001311;28;20183;-78
2022/12/22 13:37:25;;;;;;;2.70;1.10;;;13.30;99.90;;;;;;5008915;28;20190;-78
2022/12/22 13:40:12;;;;;;;1.45;0.73;;;13.10;99.90;;;;;;5001821;28;20542;-78
2022/12/22 13:42:41;;;;;;;1.65;0.70;;;13.40;99.90;;;;;;5013338;28;20198;-78
2022/12/22 13:45:51;;;;;;;1.23;0.75;;;13.60;99.90;;;;;;5013181;28;20179;-78
2022/12/22 13:48:34;;;;;;;3.97;1.40;;;13.30;99.90;;;;;;5032679;28;20194;-78
2022/12/22 13:51:04;;;;;;;1.88;0.88;;;13.00;99.90;;;;;;5013304;28;20202;-79
2022/12/22 13:53:42;;;;;;;1.20;1.10;;;13.30;99.90;;;;;;5009519;28;20636;-78
2022/12/22 13:56:13;;;;;;;0.90;0.75;;;13.00;99.90;;;;;;5012880;28;20194;-78
2022/12/22 13:58:44;;;;;;;1.60;1.50;;;13.60;99.90;;;;;;5006139;28;20215;-78
2022/12/22 14:01:09;;;;;;;2.28;1.45;;;13.50;99.90;;;;;;5013061;28;20276;-78
2022/12/22 14:03:44;;;;;;;1.30;1.10;;;13.30;99.90;;;;;;5011246;28;20183;-78
2022/12/22 14:06:31;;;;;;;2.53;0.90;;;13.90;99.90;;;;;;5010692;28;20197;-78
2022/12/22 14:09:19;;;;;;;1.58;0.90;;;13.70;99.90;;;;;;5014797;28;20187;-78
2022/12/22 14:12:00;;;;;;;2.53;1.63;;;13.80;99.90;;;;;;5012918;28;20570;-78
2022/12/22 14:14:37;;;;;;;2.83;1.42;;;13.60;99.90;;;;;;5012512;28;20202;-79
2022/12/22 14:17:04;;;;;;;2.88;1.17;;;13.60;99.90;;;;;;5012997;28;20182;-77
2022/12/22 14:19:32;;;;;;;1.70;1.40;;;13.00;99.90;;;;;;5002854;28;20224;-78
2022/12/22 14:22:12;;;;;;;2.83;1.80;;;13.60;99.90;;;;;;5020467;28;20698;-77
2022/12/22 14:25:02;;;;;;;2.28;1.10;;;13.20;99.90;;;;;;5009887;28;20589;-79
2022/12/22 14:27:33;;;;;;;3.03;1.10;;;13.70;99.90;;;;;;5013259;28;20737;-79
2022/12/22 14:30:02;;;;;;;4.00;1.50;;;13.10;99.90;;;;;;5011996;28;20337;-78
2022/12/22 14:32:36;;;;;;;1.55;1.00;;;13.00;99.90;;;;;;5012043;28;20285;-79
2022/12/22 14:35:02;;;;;;;2.65;1.65;;;12.90;99.90;;;;;;5010605;28;20174;-78
2022/12/22 14:37:27;;;;;;;2.20;1.33;;;12.80;99.90;;;;;;5012348;28;20213;-78
2022/12/22 14:39:56;;;;;;;2.00;1.63;;;13.30;99.90;;;;;;5006660;28;20269;-78
2022/12/22 14:42:22;;;;;;;2.58;1.40;;;13.10;99.90;;;;;;5012519;28;20302;-78
2022/12/22 14:44:48;;;;;;;3.00;1.63;;;12.50;99.90;;;;;;5009145;28;20269;-79
2022/12/22 14:47:22;;;;;;;4.82;1.50;;;12.80;99.90;;;;;;5008002;28;20259;-78
2022/12/22 14:50:15;;;;;;;5.78;1.52;;;13.30;99.90;;;;;;5024362;28;20236;-78
2022/12/22 14:52:49;;;;;;;2.42;1.45;;;12.60;99.90;;;;;;5008151;28;20665;-79
2022/12/22 14:55:26;;;;;;;4.28;1.60;;;12.30;99.90;;;;;;5015519;28;20194;-78
2022/12/22 14:58:11;;;;;;;3.08;1.60;;;12.90;99.90;;;;;;5026167;28;20218;-78
2022/12/22 15:01:07;;;;;;;4.10;1.60;;;13.00;99.90;;;;;;5025332;28;20210;-78
2022/12/22 15:03:36;;;;;;;5.38;2.20;;;12.10;99.90;;;;;;5026876;28;20200;-78
2022/12/22 15:06:20;;;;;;;3.08;1.98;;;12.50;99.90;;;;;;5017467;28;20654;-78
2022/12/22 15:08:46;;;;;;;3.55;1.65;;;12.50;99.90;;;;;;5016827;28;20222;-78
2022/12/22 15:11:17;;;;;;;4.27;2.00;;;11.90;99.90;;;;;;5011120;28;20241;-78
2022/12/22 15:13:45;;;;;;;6.57;2.30;;;12.50;99.90;;;;;;5029812;28;20681;-78
2022/12/22 15:16:16;;;;;;;2.42;1.35;;;12.90;99.90;;;;;;5026347;28;20219;-78
2022/12/22 15:18:42;;;;;;;4.55;1.75;;;12.50;99.90;;;;;;5009036;28;20253;-79
2022/12/22 15:21:11;;;;;;;3.20;1.50;;;12.80;99.90;;;;;;5021487;28;20235;-78
2022/12/22 15:23:36;;;;;;;4.95;1.80;;;12.70;99.90;;;;;;5008028;28;20448;-77
2022/12/22 15:26:02;;;;;;;6.23;1.60;;;12.60;99.90;;;;;;5011813;28;20181;-79
2022/12/22 15:28:27;;;;;;;5.33;1.63;;;12.30;99.90;;;;;;5011996;28;20195;-78
2022/12/22 15:30:53;;;;;;;4.87;1.63;;;12.10;99.90;;;;;;5011963;28;20240;-78
2022/12/22 15:33:19;;;;;;;2.80;1.80;;;12.40;99.90;;;;;;5008481;28;20599;-78
2022/12/22 15:35:45;;;;;;;6.63;3.70;;;12.40;99.90;;;;;;5011256;28;20628;-78
2022/12/22 15:38:19;;;;;;;3.75;1.55;;;12.20;99.90;;;;;;5007636;28;20578;-78
2022/12/22 15:40:45;;;;;;;3.35;1.60;;;12.40;99.90;;;;;;5005070;28;20190;-79
2022/12/22 15:43:13;;;;;;;2.60;1.60;;;12.60;99.90;;;;;;5012104;28;20197;-78
2022/12/22 15:45:39;;;;;;;2.70;2.13;;;12.10;99.90;;;;;;5010633;28;20465;-78
2022/12/22 15:48:09;;;;;;;4.45;1.40;;;11.70;99.90;;;;;;5002833;28;20208;-78
2022/12/22 15:50:39;;;;;;;2.80;1.10;;;12.20;99.90;;;;;;5011134;28;20177;-78
2022/12/22 15:53:08;;;;;;;3.28;1.45;;;12.10;99.90;;;;;;5011306;28;20202;-79
2022/12/22 15:55:38;;;;;;;2.88;1.20;;;12.30;99.90;;;;;;5006151;28;20189;-78
2022/12/22 15:58:03;;;;;;;2.75;1.60;;;11.90;99.90;;;;;;5010436;28;20611;-78
2022/12/22 16:00:29;;;;;;;4.20;1.57;;;12.60;99.90;;;;;;5010231;28;20178;-79
2022/12/22 16:02:54;;;;;;;8.57;2.10;;;11.90;99.90;;;;;;5010047;28;20240;-79
2022/12/22 16:05:20;;;;;;;2.63;1.40;;;12.20;99.90;;;;;;5011157;28;20175;-77
2022/12/22 16:07:45;;;;;;;3.33;1.80;;;11.90;99.90;;;;;;5010622;28;20187;-78
2022/12/22 16:10:23;;;;;;;4.03;1.83;;;12.40;99.90;;;;;;5008017;28;20241;-79
2022/12/22 16:12:54;;;;;;;5.25;1.70;;;12.00;99.90;;;;;;5011273;28;20220;-78
2022/12/22 16:15:20;;;;;;;4.90;1.60;;;12.10;99.90;;;;;;5011249;28;20215;-77
2022/12/22 16:17:46;;;;;;;4.82;2.03;;;11.70;99.90;;;;;;5014803;28;20252;-77
2022/12/22 16:20:12;;;;;;;2.30;1.63;;;12.00;99.90;;;;;;5015649;28;20175;-77
2022/12/22 16:22:38;;;;;;;4.17;1.90;;;11.80;99.90;;;;;;5010756;28;20560;-78
2022/12/22 16:25:11;;;;;;;4.00;1.85;;;11.90;99.90;;;;;;4997036;28;20202;-80
2022/12/22 16:27:37;;;;;;;5.32;1.90;;;11.80;99.90;;;;;;5011565;28;20199;-78
2022/12/22 16:30:03;;;;;;;5.80;2.10;;;11.50;99.90;;;;;;5010359;28;20293;-78
2022/12/22 16:32:31;;;;;;;4.07;2.10;;;11.80;99.90;;;;;;5003256;28;20364;-77
2022/12/22 16:35:08;;;;;;;4.95;2.47;;;12.00;99.90;;;;;;5014443;28;20214;-78
2022/12/22 16:37:34;;;;;;;8.00;1.67;;;11.70;99.90;;;;;;5010129;28;20235;-79
2022/12/22 16:40:00;;;;;;;5.43;2.27;;;11.50;99.90;;;;;;5006959;28;20190;-78
2022/12/22 16:42:37;;;;;;;4.83;2.00;;;11.40;99.90;;;;;;5010538;28;20244;-80
2022/12/22 16:45:05;;;;;;;4.25;2.53;;;11.90;99.90;;;;;;5010680;28;20442;-78
2022/12/22 16:47:34;;;;;;;9.38;2.60;;;11.40;99.90;;;;;;5006031;28;20277;-78
2022/12/22 16:50:00;;;;;;;4.10;1.92;;;11.40;99.90;;;;;;5010537;28;20187;-79
2022/12/22 16:52:37;;;;;;;6.10;2.60;;;11.30;99.90;;;;;;5008749;28;20205;-77